createdAt,value
2023-04-03T00:00:13.715Z,56.39
2023-04-03T00:01:13.810Z,56.35
2023-04-03T00:02:13.963Z,56.53
2023-04-03T00:03:13.965Z,56.33
2023-04-03T00:04:14.066Z,56.46
2023-04-03T00:05:14.095Z,56.69
2023-04-03T00:06:14.178Z,56.82
2023-04-03T00:07:14.244Z,56.69
2023-04-03T00:08:15.209Z,56.75
2023-04-03T00:09:14.400Z,56.36
2023-04-03T00:10:14.468Z,55.92
2023-04-03T00:11:14.543Z,55.54
2023-04-03T00:12:14.620Z,55.51
2023-04-03T00:13:14.721Z,55.47
2023-04-03T00:14:14.782Z,55.26
2023-04-03T00:15:14.846Z,55.20
2023-04-03T00:16:14.961Z,55.00
2023-04-03T00:17:14.991Z,55.02
2023-04-03T00:18:15.051Z,54.86
2023-04-03T00:19:15.140Z,54.85
2023-04-03T00:20:15.220Z,54.90
2023-04-03T00:21:15.308Z,54.84
2023-04-03T00:22:15.477Z,54.84
2023-04-03T00:23:15.492Z,54.95
2023-04-03T00:24:15.602Z,54.99
2023-04-03T00:25:15.707Z,54.69
2023-04-03T00:26:15.820Z,54.81
2023-04-03T00:27:15.953Z,54.78
2023-04-03T00:28:16.102Z,54.73
2023-04-03T00:29:16.249Z,54.86
2023-04-03T00:30:16.392Z,55.01
2023-04-03T00:31:16.565Z,54.78
2023-04-03T00:32:16.685Z,54.47
2023-04-03T00:33:16.849Z,54.61
2023-04-03T00:34:17.007Z,54.60
2023-04-03T00:35:17.166Z,54.48
2023-04-03T00:36:17.390Z,54.32
2023-04-03T00:37:17.477Z,54.13
2023-04-03T00:38:17.616Z,54.22
2023-04-03T00:39:17.778Z,53.69
2023-04-03T00:40:17.929Z,53.51
2023-04-03T00:41:18.110Z,53.48
2023-04-03T00:42:18.245Z,53.61
2023-04-03T00:43:18.380Z,53.72
2023-04-03T00:44:18.534Z,53.52
2023-04-03T00:45:18.674Z,53.46
2023-04-03T00:46:18.903Z,53.61
2023-04-03T00:47:18.946Z,53.65
2023-04-03T00:48:19.078Z,53.62
2023-04-03T00:49:19.246Z,53.64
2023-04-03T00:50:19.393Z,53.62
2023-04-03T00:51:19.549Z,53.48
2023-04-03T00:52:19.699Z,53.51
2023-04-03T00:53:19.866Z,53.46
2023-04-03T00:54:19.984Z,53.66
2023-04-03T00:55:20.108Z,53.62
2023-04-03T00:56:20.233Z,53.61
2023-04-03T00:57:20.380Z,53.57
2023-04-03T00:58:20.468Z,53.29
2023-04-03T00:59:20.635Z,53.35
2023-04-03T01:00:20.784Z,53.55
2023-04-03T01:01:21.021Z,53.41
2023-04-03T01:02:21.074Z,53.27
2023-04-03T01:03:21.223Z,53.23
2023-04-03T01:04:21.400Z,53.14
2023-04-03T01:05:21.534Z,53.18
2023-04-03T01:06:21.681Z,53.18
2023-04-03T01:07:21.897Z,53.44
2023-04-03T01:08:22.007Z,53.50
2023-04-03T01:09:22.180Z,53.54
2023-04-03T01:10:22.329Z,53.42
2023-04-03T01:11:22.494Z,53.61
2023-04-03T01:12:22.641Z,53.65
2023-04-03T01:13:22.786Z,53.58
2023-04-03T01:14:22.951Z,53.51
2023-04-03T01:15:23.096Z,53.46
2023-04-03T01:16:23.299Z,53.55
2023-04-03T01:17:23.394Z,53.56
2023-04-03T01:18:23.542Z,53.62
2023-04-03T01:19:23.671Z,53.60
2023-04-03T01:20:23.836Z,53.63
2023-04-03T01:21:23.994Z,53.57
2023-04-03T01:22:24.152Z,53.53
2023-04-03T01:23:24.305Z,53.36
2023-04-03T01:24:24.471Z,53.40
2023-04-03T01:25:24.616Z,53.50
2023-04-03T01:26:24.766Z,53.70
2023-04-03T01:27:24.932Z,53.79
2023-04-03T01:28:25.069Z,53.68
2023-04-03T01:29:25.237Z,53.66
2023-04-03T01:30:25.410Z,53.64
2023-04-03T01:31:25.557Z,53.51
2023-04-03T01:32:25.686Z,53.37
2023-04-03T01:33:25.764Z,53.31
2023-04-03T01:34:25.892Z,53.37
2023-04-03T01:35:26.010Z,53.41
2023-04-03T01:36:26.161Z,53.28
2023-04-03T01:37:26.257Z,53.28
2023-04-03T01:38:26.381Z,53.36
2023-04-03T01:39:26.518Z,53.45
2023-04-03T01:40:26.621Z,53.44
2023-04-03T01:41:26.809Z,53.44
2023-04-03T01:42:26.937Z,53.40
2023-04-03T01:43:27.086Z,53.20
2023-04-03T01:44:27.242Z,53.18
2023-04-03T01:45:27.481Z,53.09
2023-04-03T01:46:27.624Z,52.97
2023-04-03T01:47:27.799Z,53.00
2023-04-03T01:48:27.929Z,53.03
2023-04-03T01:49:28.065Z,53.06
2023-04-03T01:50:28.203Z,52.91
2023-04-03T01:51:28.338Z,52.97
2023-04-03T01:52:28.485Z,52.97
2023-04-03T01:53:28.636Z,52.81
2023-04-03T01:54:28.803Z,52.94
2023-04-03T01:55:28.964Z,53.14
2023-04-03T01:56:29.114Z,53.24
2023-04-03T01:57:29.297Z,53.23
2023-04-03T01:58:29.405Z,53.79
2023-04-03T01:59:29.572Z,53.86
2023-04-03T02:00:29.718Z,54.37
2023-04-03T02:01:29.872Z,54.06
2023-04-03T02:02:30.035Z,53.61
2023-04-03T02:03:30.169Z,53.69
2023-04-03T02:04:30.403Z,53.54
2023-04-03T02:05:30.485Z,53.34
2023-04-03T02:06:30.616Z,53.67
2023-04-03T02:07:30.771Z,53.49
2023-04-03T02:08:30.893Z,53.59
2023-04-03T02:09:31.107Z,53.66
2023-04-03T02:10:31.160Z,53.92
2023-04-03T02:11:31.257Z,54.10
2023-04-03T02:12:31.383Z,53.75
2023-04-03T02:13:31.508Z,53.34
2023-04-03T02:14:31.640Z,53.40
2023-04-03T02:15:31.758Z,53.24
2023-04-03T02:16:31.982Z,53.09
2023-04-03T02:17:32.010Z,52.67
2023-04-03T02:18:32.070Z,52.81
2023-04-03T02:19:32.200Z,52.94
2023-04-03T02:20:32.320Z,52.66
2023-04-03T02:21:32.460Z,52.42
2023-04-03T02:22:32.616Z,52.40
2023-04-03T02:23:32.759Z,52.38
2023-04-03T02:24:32.898Z,52.28
2023-04-03T02:25:33.032Z,52.13
2023-04-03T02:26:33.163Z,52.14
2023-04-03T02:27:33.298Z,52.13
2023-04-03T02:28:33.413Z,51.96
2023-04-03T02:29:33.545Z,51.99
2023-04-03T02:30:33.729Z,51.55
2023-04-03T02:31:33.941Z,51.73
2023-04-03T02:32:34.054Z,51.86
2023-04-03T02:33:34.166Z,51.82
2023-04-03T02:34:34.319Z,51.72
2023-04-03T02:35:34.471Z,51.63
2023-04-03T02:36:34.617Z,51.55
2023-04-03T02:37:34.778Z,51.70
2023-04-03T02:38:34.928Z,51.56
2023-04-03T02:39:35.074Z,51.64
2023-04-03T02:40:35.422Z,51.70
2023-04-03T02:41:35.371Z,51.65
2023-04-03T02:42:35.511Z,51.13
2023-04-03T02:43:35.649Z,51.26
2023-04-03T02:44:35.797Z,51.16
2023-04-03T02:45:35.959Z,51.13
2023-04-03T02:46:36.128Z,51.07
2023-04-03T02:47:36.324Z,51.04
2023-04-03T02:48:36.408Z,51.14
2023-04-03T02:49:36.572Z,51.02
2023-04-03T02:50:36.892Z,51.14
2023-04-03T02:51:36.847Z,51.15
2023-04-03T02:52:37.000Z,51.07
2023-04-03T02:53:37.149Z,51.18
2023-04-03T02:54:37.287Z,50.97
2023-04-03T02:55:37.423Z,51.06
2023-04-03T02:56:37.564Z,51.05
2023-04-03T02:57:37.708Z,50.95
2023-04-03T02:58:37.839Z,50.98
2023-04-03T02:59:37.994Z,50.88
2023-04-03T03:00:38.530Z,50.93
2023-04-03T03:01:38.302Z,51.00
2023-04-03T03:02:38.438Z,51.13
2023-04-03T03:03:38.569Z,51.22
2023-04-03T03:04:38.725Z,51.02
2023-04-03T03:05:38.853Z,51.04
2023-04-03T03:06:39.017Z,51.00
2023-04-03T03:07:39.153Z,50.76
2023-04-03T03:08:39.313Z,50.73
2023-04-03T03:09:39.473Z,50.63
2023-04-03T03:10:39.813Z,50.48
2023-04-03T03:11:39.777Z,50.56
2023-04-03T03:12:39.913Z,50.55
2023-04-03T03:13:40.064Z,50.69
2023-04-03T03:14:40.217Z,50.75
2023-04-03T03:15:40.404Z,50.64
2023-04-03T03:16:40.532Z,50.67
2023-04-03T03:17:40.718Z,50.61
2023-04-03T03:18:40.800Z,50.46
2023-04-03T03:19:40.953Z,50.33
2023-04-03T03:20:41.060Z,50.26
2023-04-03T03:21:41.152Z,50.41
2023-04-03T03:22:41.285Z,50.49
2023-04-03T03:23:41.409Z,50.41
2023-04-03T03:24:41.519Z,50.64
2023-04-03T03:25:41.655Z,50.73
2023-04-03T03:26:41.772Z,50.77
2023-04-03T03:27:41.887Z,50.91
2023-04-03T03:28:42.013Z,50.96
2023-04-03T03:29:42.132Z,51.04
2023-04-03T03:30:42.253Z,51.10
2023-04-03T03:31:42.457Z,51.20
2023-04-03T03:32:42.603Z,51.37
2023-04-03T03:33:42.712Z,51.77
2023-04-03T03:34:42.860Z,51.75
2023-04-03T03:35:43.012Z,51.77
2023-04-03T03:36:43.108Z,51.76
2023-04-03T03:37:43.277Z,51.58
2023-04-03T03:38:43.377Z,51.67
2023-04-03T03:39:43.478Z,51.76
2023-04-03T03:40:43.617Z,51.63
2023-04-03T03:41:43.705Z,51.62
2023-04-03T03:42:43.896Z,51.59
2023-04-03T03:43:44.086Z,51.51
2023-04-03T03:44:44.210Z,51.35
2023-04-03T03:45:44.302Z,51.44
2023-04-03T03:46:44.447Z,51.46
2023-04-03T03:47:44.580Z,51.66
2023-04-03T03:48:44.650Z,51.68
2023-04-03T03:49:44.765Z,51.79
2023-04-03T03:50:44.877Z,51.81
2023-04-03T03:51:44.979Z,51.80
2023-04-03T03:52:45.118Z,51.82
2023-04-03T03:53:45.221Z,51.76
2023-04-03T03:54:45.411Z,51.84
2023-04-03T03:55:45.536Z,52.04
2023-04-03T03:56:45.657Z,52.04
2023-04-03T03:57:45.796Z,52.09
2023-04-03T03:58:45.945Z,52.17
2023-04-03T03:59:46.172Z,52.31
2023-04-03T04:00:46.370Z,52.23
2023-04-03T04:01:46.501Z,52.27
2023-04-03T04:02:46.681Z,52.31
2023-04-03T04:03:46.858Z,52.46
2023-04-03T04:04:46.859Z,52.62
2023-04-03T04:05:46.981Z,52.60
2023-04-03T04:06:47.153Z,52.47
2023-04-03T04:07:47.279Z,52.41
2023-04-03T04:08:47.415Z,52.58
2023-04-03T04:09:47.543Z,52.59
2023-04-03T04:10:47.685Z,52.52
2023-04-03T04:11:47.834Z,52.48
2023-04-03T04:12:47.952Z,52.44
2023-04-03T04:13:48.065Z,52.47
2023-04-03T04:14:48.183Z,52.43
2023-04-03T04:15:48.298Z,52.47
2023-04-03T04:16:48.504Z,52.43
2023-04-03T04:17:48.575Z,52.37
2023-04-03T04:18:48.654Z,52.44
2023-04-03T04:19:48.769Z,52.46
2023-04-03T04:20:48.890Z,52.49
2023-04-03T04:21:49.005Z,52.54
2023-04-03T04:22:49.131Z,52.48
2023-04-03T04:23:49.231Z,52.51
2023-04-03T04:24:49.337Z,52.45
2023-04-03T04:25:49.511Z,52.43
2023-04-03T04:26:49.620Z,52.43
2023-04-03T04:27:49.759Z,52.40
2023-04-03T04:28:49.893Z,52.37
2023-04-03T04:29:49.996Z,52.26
2023-04-03T04:30:50.160Z,52.27
2023-04-03T04:31:50.286Z,52.29
2023-04-03T04:32:50.432Z,52.33
2023-04-03T04:33:50.524Z,52.41
2023-04-03T04:34:50.699Z,52.47
2023-04-03T04:35:50.883Z,52.53
2023-04-03T04:36:51.049Z,52.48
2023-04-03T04:37:51.109Z,52.49
2023-04-03T04:38:51.224Z,52.41
2023-04-03T04:39:51.394Z,52.37
2023-04-03T04:40:51.583Z,52.37
2023-04-03T04:41:51.762Z,52.33
2023-04-03T04:42:51.882Z,52.30
2023-04-03T04:43:51.993Z,52.37
2023-04-03T04:44:52.096Z,52.34
2023-04-03T04:45:52.237Z,52.32
2023-04-03T04:46:52.334Z,52.33
2023-04-03T04:47:52.569Z,52.32
2023-04-03T04:48:52.615Z,52.27
2023-04-03T04:49:52.770Z,52.12
2023-04-03T04:50:52.921Z,52.27
2023-04-03T04:51:53.063Z,52.35
2023-04-03T04:52:53.205Z,52.36
2023-04-03T04:53:55.512Z,52.38
2023-04-03T04:54:53.447Z,52.45
2023-04-03T04:55:53.556Z,52.44
2023-04-03T04:56:53.671Z,52.35
2023-04-03T04:57:53.749Z,52.31
2023-04-03T04:58:53.849Z,52.37
2023-04-03T04:59:53.939Z,52.25
2023-04-03T05:00:54.040Z,52.14
2023-04-03T05:01:54.281Z,52.24
2023-04-03T05:02:54.303Z,52.17
2023-04-03T05:03:54.336Z,52.22
2023-04-03T05:04:54.460Z,52.25
2023-04-03T05:05:54.535Z,52.20
2023-04-03T05:06:54.627Z,52.08
2023-04-03T05:07:54.728Z,51.99
2023-04-03T05:08:54.827Z,51.99
2023-04-03T05:09:54.940Z,51.87
2023-04-03T05:10:56.242Z,51.84
2023-04-03T05:11:55.133Z,51.85
2023-04-03T05:12:55.244Z,51.91
2023-04-03T05:13:55.340Z,51.85
2023-04-03T05:14:55.440Z,51.83
2023-04-03T05:15:55.571Z,51.81
2023-04-03T05:16:55.637Z,51.86
2023-04-03T05:17:55.773Z,51.86
2023-04-03T05:18:55.864Z,51.77
2023-04-03T05:19:56.020Z,51.82
2023-04-03T05:20:56.102Z,51.89
2023-04-03T05:21:56.208Z,51.81
2023-04-03T05:22:56.323Z,51.82
2023-04-03T05:23:56.455Z,51.65
2023-04-03T05:24:56.560Z,51.71
2023-04-03T05:25:56.676Z,51.72
2023-04-03T05:26:56.787Z,51.68
2023-04-03T05:27:56.903Z,51.72
2023-04-03T05:28:57.012Z,51.73
2023-04-03T05:29:57.150Z,51.71
2023-04-03T05:30:57.239Z,51.75
2023-04-03T05:31:57.375Z,51.64
2023-04-03T05:32:57.505Z,51.67
2023-04-03T05:33:57.550Z,51.59
2023-04-03T05:34:59.452Z,51.46
2023-04-03T05:35:57.801Z,51.47
2023-04-03T05:36:57.961Z,51.59
2023-04-03T05:37:57.990Z,51.60
2023-04-03T05:38:58.092Z,51.66
2023-04-03T05:39:58.197Z,51.48
2023-04-03T05:40:58.322Z,51.36
2023-04-03T05:41:58.421Z,51.30
2023-04-03T05:42:58.533Z,51.43
2023-04-03T05:43:58.666Z,51.47
2023-04-03T05:44:58.765Z,51.41
2023-04-03T05:45:58.898Z,51.48
2023-04-03T05:46:59.775Z,51.47
2023-04-03T05:47:59.150Z,51.36
2023-04-03T05:48:59.194Z,51.25
2023-04-03T05:49:59.305Z,51.15
2023-04-03T05:50:59.410Z,51.13
2023-04-03T05:51:59.524Z,51.07
2023-04-03T05:52:59.609Z,50.86
2023-04-03T05:53:59.718Z,50.80
2023-04-03T05:54:59.824Z,50.88
2023-04-03T05:55:59.951Z,50.83
2023-04-03T05:57:00.109Z,50.73
2023-04-03T05:58:00.173Z,50.81
2023-04-03T05:59:00.296Z,51.17
2023-04-03T06:00:00.410Z,51.21
2023-04-03T06:01:00.532Z,51.00
2023-04-03T06:02:00.653Z,50.99
2023-04-03T06:03:01.023Z,50.99
2023-04-03T06:04:01.032Z,51.17
2023-04-03T06:05:01.010Z,51.13
2023-04-03T06:06:01.100Z,51.04
2023-04-03T06:07:01.196Z,50.98
2023-04-03T06:08:01.331Z,50.99
2023-04-03T06:09:03.637Z,51.01
2023-04-03T06:10:01.553Z,51.05
2023-04-03T06:11:01.669Z,50.80
2023-04-03T06:12:01.780Z,50.78
2023-04-03T06:13:01.872Z,50.64
2023-04-03T06:14:02.024Z,50.65
2023-04-03T06:15:02.146Z,50.73
2023-04-03T06:16:02.279Z,50.76
2023-04-03T06:17:02.418Z,50.70
2023-04-03T06:18:02.604Z,50.69
2023-04-03T06:19:02.686Z,50.85
2023-04-03T06:20:02.861Z,50.93
2023-04-03T06:21:03.029Z,50.99
2023-04-03T06:22:03.199Z,50.95
2023-04-03T06:23:03.308Z,51.17
2023-04-03T06:24:03.445Z,51.13
2023-04-03T06:25:03.575Z,51.06
2023-04-03T06:26:03.691Z,50.99
2023-04-03T06:27:03.806Z,50.95
2023-04-03T06:28:03.950Z,51.00
2023-04-03T06:29:04.090Z,50.93
2023-04-03T06:30:04.198Z,51.02
2023-04-03T06:31:04.406Z,50.98
2023-04-03T06:32:04.443Z,50.94
2023-04-03T06:33:04.624Z,50.83
2023-04-03T06:34:05.022Z,50.98
2023-04-03T06:35:04.872Z,50.95
2023-04-03T06:36:05.094Z,50.87
2023-04-03T06:37:05.134Z,50.89
2023-04-03T06:38:05.285Z,50.99
2023-04-03T06:39:05.455Z,50.98
2023-04-03T06:40:05.604Z,51.16
2023-04-03T06:41:05.769Z,51.15
2023-04-03T06:42:05.884Z,50.93
2023-04-03T06:43:06.016Z,50.93
2023-04-03T06:44:06.116Z,51.01
2023-04-03T06:45:06.232Z,50.82
2023-04-03T06:46:06.399Z,50.83
2023-04-03T06:47:06.650Z,50.95
2023-04-03T06:48:06.758Z,51.04
2023-04-03T06:49:06.814Z,51.02
2023-04-03T06:50:06.933Z,51.04
2023-04-03T06:51:07.054Z,50.90
2023-04-03T06:52:07.197Z,50.96
2023-04-03T06:53:07.345Z,51.12
2023-04-03T06:54:07.492Z,51.09
2023-04-03T06:55:07.654Z,51.09
2023-04-03T06:56:07.777Z,51.31
2023-04-03T06:57:07.936Z,51.16
2023-04-03T06:58:08.029Z,51.23
2023-04-03T06:59:08.141Z,51.07
2023-04-03T07:00:08.288Z,51.03
2023-04-03T07:01:08.360Z,50.84
2023-04-03T07:02:08.618Z,50.79
2023-04-03T07:03:08.714Z,50.69
2023-04-03T07:04:08.752Z,50.39
2023-04-03T07:05:08.840Z,50.45
2023-04-03T07:06:08.981Z,50.44
2023-04-03T07:07:09.108Z,50.46
2023-04-03T07:08:09.253Z,49.95
2023-04-03T07:09:09.292Z,49.98
2023-04-03T07:10:09.406Z,50.01
2023-04-03T07:11:09.600Z,50.01
2023-04-03T07:12:09.793Z,50.02
2023-04-03T07:13:09.908Z,49.89
2023-04-03T07:14:10.028Z,50.01
2023-04-03T07:15:10.784Z,49.88
2023-04-03T07:16:10.298Z,49.87
2023-04-03T07:17:10.363Z,49.79
2023-04-03T07:18:10.481Z,49.78
2023-04-03T07:19:10.586Z,49.76
2023-04-03T07:20:10.776Z,49.74
2023-04-03T07:21:10.902Z,49.67
2023-04-03T07:22:11.054Z,49.89
2023-04-03T07:23:11.124Z,49.90
2023-04-03T07:24:13.218Z,49.82
2023-04-03T07:25:11.336Z,49.79
2023-04-03T07:26:11.435Z,49.87
2023-04-03T07:27:11.559Z,49.61
2023-04-03T07:28:11.654Z,49.61
2023-04-03T07:29:11.758Z,49.63
2023-04-03T07:30:11.867Z,49.57
2023-04-03T07:31:12.047Z,49.46
2023-04-03T07:32:12.101Z,49.58
2023-04-03T07:33:12.234Z,49.37
2023-04-03T07:34:12.337Z,49.41
2023-04-03T07:35:12.434Z,49.43
2023-04-03T07:36:12.568Z,49.32
2023-04-03T07:37:12.656Z,49.30
2023-04-03T07:38:12.767Z,49.03
2023-04-03T07:39:12.863Z,48.93
2023-04-03T07:40:12.967Z,49.02
2023-04-03T07:41:13.062Z,48.93
2023-04-03T07:42:13.152Z,48.54
2023-04-03T07:43:13.254Z,48.31
2023-04-03T07:44:13.393Z,48.67
2023-04-03T07:45:13.471Z,48.73
2023-04-03T07:46:13.635Z,48.62
2023-04-03T07:47:13.774Z,48.65
2023-04-03T07:48:13.937Z,48.64
2023-04-03T07:49:14.066Z,48.71
2023-04-03T07:50:14.182Z,48.53
2023-04-03T07:51:14.305Z,48.41
2023-04-03T07:52:14.495Z,48.36
2023-04-03T07:53:14.679Z,48.29
2023-04-03T07:54:14.829Z,48.82
2023-04-03T07:55:14.995Z,48.87
2023-04-03T07:56:15.126Z,48.61
2023-04-03T07:57:15.323Z,48.40
2023-04-03T07:58:15.456Z,48.38
2023-04-03T07:59:15.602Z,48.36
2023-04-03T08:00:15.729Z,48.39
2023-04-03T08:01:15.901Z,48.43
2023-04-03T08:02:16.072Z,48.54
2023-04-03T08:03:16.323Z,48.52
2023-04-03T08:04:16.431Z,48.83
2023-04-03T08:05:16.516Z,48.82
2023-04-03T08:06:18.540Z,48.84
2023-04-03T08:07:16.755Z,48.69
2023-04-03T08:08:17.687Z,48.71
2023-04-03T08:09:16.989Z,48.84
2023-04-03T08:10:17.099Z,48.57
2023-04-03T08:11:17.218Z,48.88
2023-04-03T08:12:17.310Z,49.12
2023-04-03T08:13:17.445Z,49.16
2023-04-03T08:14:17.930Z,49.11
2023-04-03T08:15:17.651Z,49.14
2023-04-03T08:16:17.865Z,49.17
2023-04-03T08:17:17.872Z,49.13
2023-04-03T08:18:17.980Z,49.13
2023-04-03T08:19:25.408Z,48.91
2023-04-03T08:20:19.204Z,48.86
2023-04-03T08:21:18.303Z,48.54
2023-04-03T08:22:18.402Z,48.32
2023-04-03T08:23:20.102Z,47.82
2023-04-03T08:24:18.600Z,47.48
2023-04-03T08:25:18.708Z,47.30
2023-04-03T08:26:18.772Z,47.32
2023-04-03T08:27:18.862Z,47.01
2023-04-03T08:28:18.959Z,46.94
2023-04-03T08:29:19.051Z,47.06
2023-04-03T08:30:19.107Z,47.22
2023-04-03T08:31:19.229Z,46.27
2023-04-03T08:32:19.280Z,45.97
2023-04-03T08:33:19.383Z,46.14
2023-04-03T08:34:19.502Z,45.43
2023-04-03T08:35:19.648Z,45.72
2023-04-03T08:36:19.836Z,45.83
2023-04-03T08:37:19.974Z,45.38
2023-04-03T08:38:20.097Z,45.54
2023-04-03T08:39:20.241Z,45.79
2023-04-03T08:40:20.400Z,45.37
2023-04-03T08:41:20.554Z,45.14
2023-04-03T08:42:20.721Z,44.78
2023-04-03T08:43:20.869Z,44.72
2023-04-03T08:44:20.978Z,44.45
2023-04-03T08:45:21.166Z,44.42
2023-04-03T08:46:21.289Z,43.98
2023-04-03T08:47:21.352Z,43.96
2023-04-03T08:48:21.500Z,43.68
2023-04-03T08:49:21.665Z,43.43
2023-04-03T08:50:21.826Z,43.19
2023-04-03T08:51:21.962Z,43.45
2023-04-03T08:52:22.057Z,43.27
2023-04-03T08:53:22.206Z,43.65
2023-04-03T08:54:22.367Z,43.72
2023-04-03T08:55:22.513Z,43.08
2023-04-03T08:56:22.673Z,43.40
2023-04-03T08:57:22.902Z,42.94
2023-04-03T08:58:22.938Z,43.09
2023-04-03T08:59:23.060Z,42.06
2023-04-03T09:00:23.211Z,42.54
2023-04-03T09:01:23.482Z,42.76
2023-04-03T09:02:23.569Z,42.41
2023-04-03T09:03:23.769Z,42.04
2023-04-03T09:04:23.922Z,42.15
2023-04-03T09:05:24.187Z,42.18
2023-04-03T09:06:24.091Z,41.98
2023-04-03T09:07:24.223Z,42.08
2023-04-03T09:08:24.358Z,41.82
2023-04-03T09:09:24.500Z,41.88
2023-04-03T09:10:24.634Z,42.32
2023-04-03T09:11:24.756Z,42.38
2023-04-03T09:12:24.905Z,41.69
2023-04-03T09:13:25.028Z,41.96
2023-04-03T09:14:25.175Z,41.58
2023-04-03T09:15:37.752Z,41.53
2023-04-03T09:16:26.579Z,41.59
2023-04-03T09:17:25.561Z,41.41
2023-04-03T09:18:25.703Z,41.30
2023-04-03T09:19:25.857Z,41.38
2023-04-03T09:20:25.993Z,41.20
2023-04-03T09:21:26.130Z,41.25
2023-04-03T09:22:26.212Z,41.47
2023-04-03T09:23:26.341Z,41.27
2023-04-03T09:24:26.458Z,41.94
2023-04-03T09:25:26.619Z,41.98
2023-04-03T09:26:26.767Z,42.17
2023-04-03T09:27:26.939Z,42.26
2023-04-03T09:28:27.827Z,42.22
2023-04-03T09:29:27.153Z,42.39
2023-04-03T09:30:27.253Z,41.86
2023-04-03T09:31:27.388Z,41.94
2023-04-03T09:32:27.618Z,41.95
2023-04-03T09:33:27.705Z,41.65
2023-04-03T09:34:27.869Z,41.49
2023-04-03T09:35:36.407Z,40.95
2023-04-03T09:36:29.157Z,40.85
2023-04-03T09:37:28.213Z,41.63
2023-04-03T09:38:28.293Z,41.66
2023-04-03T09:39:28.403Z,41.59
2023-04-03T09:40:28.473Z,41.84
2023-04-03T09:41:28.562Z,41.83
2023-04-03T09:42:28.648Z,41.51
2023-04-03T09:43:28.729Z,41.80
2023-04-03T09:44:28.809Z,41.64
2023-04-03T09:45:28.867Z,41.03
2023-04-03T09:46:28.971Z,41.15
2023-04-03T09:47:29.226Z,40.89
2023-04-03T09:48:29.303Z,40.57
2023-04-03T09:49:29.381Z,40.44
2023-04-03T09:50:29.507Z,39.88
2023-04-03T09:51:29.648Z,40.10
2023-04-03T09:52:29.790Z,40.19
2023-04-03T09:53:29.925Z,40.18
2023-04-03T09:54:30.054Z,39.85
2023-04-03T09:55:30.230Z,39.43
2023-04-03T09:56:30.311Z,39.81
2023-04-03T09:57:30.522Z,39.72
2023-04-03T09:58:39.441Z,39.41
2023-04-03T09:59:31.709Z,39.59
2023-04-03T10:00:30.775Z,39.45
2023-04-03T10:01:30.986Z,38.95
2023-04-03T10:02:30.999Z,38.85
2023-04-03T10:03:32.212Z,39.01
2023-04-03T10:04:31.126Z,38.77
2023-04-03T10:05:31.147Z,39.01
2023-04-03T10:06:31.239Z,38.70
2023-04-03T10:07:31.330Z,38.65
2023-04-03T10:08:31.389Z,38.94
2023-04-03T10:09:31.488Z,38.21
2023-04-03T10:10:31.569Z,38.98
2023-04-03T10:11:31.697Z,39.07
2023-04-03T10:12:31.779Z,39.16
2023-04-03T10:13:34.054Z,39.41
2023-04-03T10:14:31.945Z,38.68
2023-04-03T10:15:32.033Z,38.72
2023-04-03T10:16:32.217Z,38.86
2023-04-03T10:17:32.307Z,38.68
2023-04-03T10:18:32.566Z,38.43
2023-04-03T10:19:32.573Z,38.72
2023-04-03T10:20:32.743Z,38.81
2023-04-03T10:21:32.871Z,38.59
2023-04-03T10:22:33.008Z,39.51
2023-04-03T10:23:33.147Z,38.76
2023-04-03T10:24:33.309Z,38.38
2023-04-03T10:25:33.424Z,38.22
2023-04-03T10:26:33.528Z,38.48
2023-04-03T10:27:33.605Z,38.40
2023-04-03T10:28:33.682Z,37.56
2023-04-03T10:29:33.746Z,38.20
2023-04-03T10:30:33.880Z,37.47
2023-04-03T10:31:33.955Z,37.53
2023-04-03T10:32:34.054Z,36.84
2023-04-03T10:33:34.104Z,36.85
2023-04-03T10:34:34.270Z,37.54
2023-04-03T10:35:34.315Z,37.44
2023-04-03T10:36:34.404Z,37.39
2023-04-03T10:37:34.485Z,37.05
2023-04-03T10:38:34.646Z,36.88
2023-04-03T10:39:34.714Z,37.00
2023-04-03T10:40:34.895Z,37.13
2023-04-03T10:41:34.952Z,36.50
2023-04-03T10:42:35.080Z,36.69
2023-04-03T10:43:35.197Z,37.03
2023-04-03T10:44:35.328Z,37.57
2023-04-03T10:45:35.459Z,37.22
2023-04-03T10:46:35.659Z,36.88
2023-04-03T10:47:38.015Z,36.90
2023-04-03T10:48:35.801Z,36.55
2023-04-03T10:49:35.953Z,36.45
2023-04-03T10:50:36.322Z,36.69
2023-04-03T10:51:36.038Z,36.82
2023-04-03T10:52:36.211Z,36.55
2023-04-03T10:53:36.219Z,36.92
2023-04-03T10:54:36.303Z,36.23
2023-04-03T10:55:36.400Z,36.31
2023-04-03T10:56:36.496Z,36.59
2023-04-03T10:57:36.633Z,36.99
2023-04-03T10:58:36.667Z,37.01
2023-04-03T10:59:36.741Z,36.33
2023-04-03T11:00:36.996Z,36.98
2023-04-03T11:01:36.989Z,36.64
2023-04-03T11:02:37.067Z,36.51
2023-04-03T11:03:37.115Z,36.13
2023-04-03T11:04:37.168Z,36.07
2023-04-03T11:05:37.494Z,36.81
2023-04-03T11:06:37.338Z,36.38
2023-04-03T11:07:37.422Z,36.60
2023-04-03T11:08:37.552Z,36.65
2023-04-03T11:09:37.602Z,36.43
2023-04-03T11:10:37.679Z,36.24
2023-04-03T11:11:37.759Z,36.62
2023-04-03T11:12:37.825Z,36.00
2023-04-03T11:13:37.910Z,36.25
2023-04-03T11:14:38.003Z,36.77
2023-04-03T11:15:38.302Z,37.19
2023-04-03T11:16:47.263Z,36.75
2023-04-03T11:17:39.271Z,36.71
2023-04-03T11:18:38.340Z,36.23
2023-04-03T11:19:38.437Z,36.25
2023-04-03T11:20:38.549Z,35.89
2023-04-03T11:21:38.720Z,36.05
2023-04-03T11:22:38.747Z,35.92
2023-04-03T11:23:48.840Z,36.11
2023-04-03T11:24:39.944Z,36.37
2023-04-03T11:25:39.321Z,36.87
2023-04-03T11:26:39.095Z,36.91
2023-04-03T11:27:39.190Z,36.54
2023-04-03T11:28:39.281Z,36.68
2023-04-03T11:29:39.367Z,36.44
2023-04-03T11:30:39.540Z,36.63
2023-04-03T11:31:39.595Z,35.71
2023-04-03T11:32:39.654Z,35.75
2023-04-03T11:33:39.734Z,35.79
2023-04-03T11:34:39.868Z,35.92
2023-04-03T11:35:40.322Z,35.77
2023-04-03T11:36:40.198Z,36.02
2023-04-03T11:37:40.396Z,36.67
2023-04-03T11:38:40.433Z,36.49
2023-04-03T11:39:40.543Z,36.20
2023-04-03T11:40:40.692Z,36.24
2023-04-03T11:41:40.945Z,36.16
2023-04-03T11:42:40.988Z,35.91
2023-04-03T11:43:41.009Z,35.88
2023-04-03T11:44:41.143Z,35.76
2023-04-03T11:45:41.642Z,35.72
2023-04-03T11:46:41.398Z,35.12
2023-04-03T11:47:41.541Z,34.87
2023-04-03T11:48:41.640Z,35.01
2023-04-03T11:49:41.757Z,34.24
2023-04-03T11:50:41.896Z,34.90
2023-04-03T11:51:41.991Z,34.69
2023-04-03T11:52:44.314Z,34.68
2023-04-03T11:53:42.271Z,34.63
2023-04-03T11:54:45.255Z,34.52
2023-04-03T11:55:42.338Z,34.67
2023-04-03T11:56:42.424Z,34.12
2023-04-03T11:57:42.517Z,34.18
2023-04-03T11:58:42.613Z,34.46
2023-04-03T11:59:42.711Z,33.89
2023-04-03T12:00:42.790Z,34.02
2023-04-03T12:01:42.929Z,34.06
2023-04-03T12:02:53.945Z,34.07
2023-04-03T12:03:44.136Z,34.54
2023-04-03T12:04:43.276Z,34.06
2023-04-03T12:05:43.222Z,34.58
2023-04-03T12:06:43.291Z,34.14
2023-04-03T12:07:43.369Z,33.83
2023-04-03T12:08:43.447Z,33.38
2023-04-03T12:09:43.588Z,33.39
2023-04-03T12:10:43.610Z,33.23
2023-04-03T12:11:43.680Z,33.60
2023-04-03T12:12:43.830Z,34.09
2023-04-03T12:13:43.831Z,33.87
2023-04-03T12:14:43.903Z,33.53
2023-04-03T12:15:43.977Z,33.26
2023-04-03T12:16:44.067Z,33.59
2023-04-03T12:17:44.174Z,33.39
2023-04-03T12:18:44.256Z,33.63
2023-04-03T12:19:44.340Z,33.90
2023-04-03T12:20:44.433Z,33.63
2023-04-03T12:21:44.525Z,33.59
2023-04-03T12:22:44.608Z,33.53
2023-04-03T12:23:44.723Z,33.14
2023-04-03T12:24:44.845Z,32.95
2023-04-03T12:25:45.057Z,33.45
2023-04-03T12:26:48.536Z,33.54
2023-04-03T12:27:45.141Z,33.92
2023-04-03T12:28:45.216Z,33.71
2023-04-03T12:29:45.317Z,32.69
2023-04-03T12:30:45.412Z,32.89
2023-04-03T12:31:45.388Z,32.84
2023-04-03T12:32:45.477Z,32.70
2023-04-03T12:33:45.546Z,32.59
2023-04-03T12:34:45.629Z,32.79
2023-04-03T12:35:45.707Z,32.49
2023-04-03T12:36:45.787Z,32.21
2023-04-03T12:37:45.875Z,32.90
2023-04-03T12:38:45.976Z,33.07
2023-04-03T12:39:46.062Z,33.27
2023-04-03T12:40:46.187Z,33.12
2023-04-03T12:41:46.310Z,33.46
2023-04-03T12:42:46.301Z,33.33
2023-04-03T12:43:46.391Z,33.46
2023-04-03T12:44:46.477Z,33.61
2023-04-03T12:45:46.560Z,33.29
2023-04-03T12:46:46.667Z,33.01
2023-04-03T12:47:46.765Z,33.20
2023-04-03T12:48:46.788Z,33.54
2023-04-03T12:49:46.861Z,33.89
2023-04-03T12:50:46.919Z,32.92
2023-04-03T12:51:46.975Z,32.54
2023-04-03T12:52:47.037Z,32.28
2023-04-03T12:53:47.106Z,32.54